Pagrindinis puslapis
METAR-TAF:

METAR-TAF

Oro uostai :

Darvinas, Australija

platuma: 12-24S, ilguma: 130-52E, Aukštis: 31 m

Dabartinis oras

Ataskaita buvo paskelbta 31 minutes, ne 08:00 UTC
Vėjas 15 kt iš Vakarų
Temperatūra 32°C
Drėgmė 67%
Slėgis 1005 hPa
Matomumas 10 km arba daugiau
Mažai debesys ne aukštis 2200 ft
Išsisklaidę debesys ne aukštis 35000 ft

METAR: YPDN 230800Z 28015KT 9999 FEW022 SCT350 32/25 Q1005 NOSIG

Laikas: 18:01 (08:31 UTC)

Prognozė

Ataskaita buvo paskelbta 3 valandos ir 30 minutes, ne 05:01 UTC
Prognozė galioja nuo 23 metu 06 UTC su 24 metu 12 UTC
Vėjas 14 kt iš Vakarų
Matomumas 10 km arba daugiau
Išsisklaidę debesys ne aukštis 2000 ft
Nuo 24 metu 0100 UTC
Vėjas 16 kt iš Vakarų
Matomumas 10 km arba daugiau
Išsisklaidę debesys ne aukštis 2500 ft

TAF: YPDN 230501Z 2306/2412 28014KT 9999 SCT020 FM240100 27016KT 9999 SCT025

Orai ataskaitas ir orų prognozės (METAR, TAF).

turimą stotys yra geltonos ir raudonos taškus žemėlapyje.

Perkelti pele per norėdami pamatyti stoties vardą.

Tada spustelėkite, norėdami matyti oro stebėjimo ir prognozės.

Norėdami pakeisti žemėlapį: spustelėkite ant žalios mygtukų su juodo kryžiaus žemyn,; žalią mygtuką su brūkšneliu, jei norite nutolinti; arba žalių rodyklių gretimoms žemėlapius.


METAR-TAF: